createdAt,value
2022-08-25T00:00:39.688Z,50.877205
2022-08-25T00:01:39.641Z,50.877197
2022-08-25T00:02:39.733Z,50.877213
2022-08-25T00:03:39.662Z,50.877220
2022-08-25T00:04:39.650Z,50.877205
2022-08-25T00:05:39.642Z,50.877163
2022-08-25T00:06:39.611Z,50.877186
2022-08-25T00:07:39.596Z,50.877209
2022-08-25T00:08:39.593Z,50.877216
2022-08-25T00:09:39.595Z,50.877182
2022-08-25T00:10:39.572Z,50.877197
2022-08-25T00:11:39.550Z,50.877190
2022-08-25T00:12:39.553Z,50.877201
2022-08-25T00:13:39.551Z,50.877197
2022-08-25T00:14:39.528Z,50.877213
2022-08-25T00:15:39.569Z,50.877209
2022-08-25T00:16:39.513Z,50.877213
2022-08-25T00:17:39.502Z,50.877213
2022-08-25T00:18:39.512Z,50.877186
2022-08-25T00:19:39.490Z,50.877178
2022-08-25T00:20:39.477Z,50.877190
2022-08-25T00:21:39.463Z,50.877197
2022-08-25T00:22:39.445Z,50.877209
2022-08-25T00:23:39.440Z,50.877190
2022-08-25T00:24:39.457Z,50.877182
2022-08-25T00:25:39.418Z,50.877174
2022-08-25T00:26:39.410Z,50.877182
2022-08-25T00:27:39.439Z,50.877193
2022-08-25T00:28:39.397Z,50.877178
2022-08-25T00:29:39.371Z,50.877171
2022-08-25T00:30:39.376Z,50.877201
2022-08-25T00:31:39.417Z,50.877205
2022-08-25T00:32:39.383Z,50.877197
2022-08-25T00:33:39.371Z,50.877197
2022-08-25T00:34:39.359Z,50.877197
2022-08-25T00:35:39.331Z,50.877197
2022-08-25T00:36:39.312Z,50.877213
2022-08-25T00:37:39.304Z,50.877193
2022-08-25T00:38:39.290Z,50.877205
2022-08-25T00:39:39.303Z,50.877190
2022-08-25T00:40:39.271Z,50.877193
2022-08-25T00:41:39.287Z,50.877216
2022-08-25T00:42:39.268Z,50.877228
2022-08-25T00:43:39.249Z,50.877243
2022-08-25T00:44:39.235Z,50.877232
2022-08-25T00:45:39.229Z,50.877220
2022-08-25T00:46:39.281Z,50.877193
2022-08-25T00:47:39.222Z,50.877186
2022-08-25T00:48:39.199Z,50.877159
2022-08-25T00:49:39.180Z,50.877220
2022-08-25T00:50:39.201Z,50.877228
2022-08-25T00:51:39.188Z,50.877209
2022-08-25T00:52:39.149Z,50.877186
2022-08-25T00:53:39.149Z,50.877186
2022-08-25T00:54:39.136Z,50.877190
2022-08-25T00:55:39.145Z,50.877220
2022-08-25T00:56:39.123Z,50.877251
2022-08-25T00:57:39.124Z,50.877232
2022-08-25T00:58:39.090Z,50.877209
2022-08-25T00:59:39.125Z,50.877228
2022-08-25T01:00:40.070Z,50.877220
2022-08-25T01:01:39.152Z,50.877232
2022-08-25T01:02:39.153Z,50.877216
2022-08-25T01:03:39.051Z,50.877213
2022-08-25T01:04:39.026Z,50.877224
2022-08-25T01:05:39.056Z,50.877228
2022-08-25T01:06:39.014Z,50.877197
2022-08-25T01:08:10.908Z,50.877193
2022-08-25T01:08:39.010Z,50.877193
2022-08-25T01:09:38.994Z,50.877190
2022-08-25T01:10:39.020Z,50.877197
2022-08-25T01:11:38.986Z,50.877216
2022-08-25T01:12:38.973Z,50.877193
2022-08-25T01:13:38.982Z,50.877167
2022-08-25T01:14:38.991Z,50.877167
2022-08-25T01:15:38.988Z,50.877174
2022-08-25T01:16:38.936Z,50.877102
2022-08-25T01:17:38.928Z,50.877075
2022-08-25T01:18:38.950Z,50.877163
2022-08-25T01:19:38.900Z,50.877159
2022-08-25T01:20:38.889Z,50.877171
2022-08-25T01:21:38.894Z,50.877159
2022-08-25T01:22:38.870Z,50.877186
2022-08-25T01:23:38.890Z,50.877197
2022-08-25T01:24:38.845Z,50.877201
2022-08-25T01:25:38.842Z,50.877205
2022-08-25T01:26:38.826Z,50.877220
2022-08-25T01:27:38.822Z,50.877205
2022-08-25T01:28:38.801Z,50.877205
2022-08-25T01:29:38.818Z,50.877190
2022-08-25T01:30:38.854Z,50.877174
2022-08-25T01:31:38.802Z,50.877144
2022-08-25T01:32:38.763Z,50.877163
2022-08-25T01:33:38.781Z,50.877178
2022-08-25T01:34:38.777Z,50.877178
2022-08-25T01:35:38.745Z,50.877171
2022-08-25T01:36:38.730Z,50.877178
2022-08-25T01:37:38.719Z,50.877178
2022-08-25T01:38:38.711Z,50.877186
2022-08-25T01:39:38.724Z,50.877193
2022-08-25T01:40:39.713Z,50.877186
2022-08-25T01:41:38.712Z,50.877190
2022-08-25T01:42:38.761Z,50.877205
2022-08-25T01:43:38.677Z,50.877197
2022-08-25T01:44:38.652Z,50.877201
2022-08-25T01:45:38.646Z,50.877140
2022-08-25T01:46:38.688Z,50.877144
2022-08-25T01:47:38.648Z,50.877140
2022-08-25T01:48:38.618Z,50.877205
2022-08-25T01:49:38.607Z,50.877216
2022-08-25T01:50:38.597Z,50.877182
2022-08-25T01:51:38.613Z,50.877193
2022-08-25T01:52:38.625Z,50.877190
2022-08-25T01:53:38.580Z,50.877254
2022-08-25T01:54:38.558Z,50.877193
2022-08-25T01:55:38.559Z,50.877243
2022-08-25T01:56:38.551Z,50.877159
2022-08-25T01:57:38.563Z,50.877171
2022-08-25T01:58:38.525Z,50.877224
2022-08-25T01:59:38.516Z,50.877220
2022-08-25T02:00:38.510Z,50.877182
2022-08-25T02:01:38.602Z,50.877151
2022-08-25T02:02:38.590Z,50.877163
2022-08-25T02:03:38.505Z,50.877186
2022-08-25T02:04:38.467Z,50.877197
2022-08-25T02:05:38.478Z,50.877193
2022-08-25T02:06:38.451Z,50.877220
2022-08-25T02:07:38.451Z,50.877155
2022-08-25T02:08:38.456Z,50.877205
2022-08-25T02:09:38.406Z,50.877140
2022-08-25T02:10:38.432Z,50.877129
2022-08-25T02:11:38.403Z,50.877159
2022-08-25T02:12:38.413Z,50.877148
2022-08-25T02:13:38.397Z,50.877163
2022-08-25T02:14:38.378Z,50.877174
2022-08-25T02:15:38.376Z,50.877171
2022-08-25T02:16:38.421Z,50.877213
2022-08-25T02:17:38.347Z,50.877213
2022-08-25T02:18:38.334Z,50.877186
2022-08-25T02:19:38.340Z,50.877186
2022-08-25T02:20:38.306Z,50.877197
2022-08-25T02:21:38.293Z,50.877186
2022-08-25T02:22:38.332Z,50.877182
2022-08-25T02:23:38.291Z,50.877159
2022-08-25T02:24:38.270Z,50.877113
2022-08-25T02:25:38.256Z,50.877125
2022-08-25T02:26:38.246Z,50.877190
2022-08-25T02:27:38.262Z,50.877182
2022-08-25T02:28:38.227Z,50.877171
2022-08-25T02:29:38.204Z,50.877174
2022-08-25T02:30:38.256Z,50.877174
2022-08-25T02:31:38.202Z,50.877171
2022-08-25T02:32:38.182Z,50.877159
2022-08-25T02:33:38.197Z,50.877193
2022-08-25T02:34:38.167Z,50.877193
2022-08-25T02:35:38.149Z,50.877174
2022-08-25T02:36:38.162Z,50.877174
2022-08-25T02:37:38.135Z,50.877182
2022-08-25T02:38:38.128Z,50.877197
2022-08-25T02:39:38.123Z,50.877174
2022-08-25T02:40:38.140Z,50.877178
2022-08-25T02:41:38.091Z,50.877171
2022-08-25T02:42:38.122Z,50.877186
2022-08-25T02:43:38.087Z,50.877190
2022-08-25T02:44:38.068Z,50.877193
2022-08-25T02:45:38.089Z,50.877190
2022-08-25T02:46:38.080Z,50.877193
2022-08-25T02:47:38.039Z,50.877190
2022-08-25T02:48:38.065Z,50.877178
2022-08-25T02:49:38.019Z,50.877174
2022-08-25T02:50:38.011Z,50.877190
2022-08-25T02:51:38.024Z,50.877186
2022-08-25T02:52:37.994Z,50.877178
2022-08-25T02:53:37.984Z,50.877178
2022-08-25T02:54:38.005Z,50.877182
2022-08-25T02:55:37.958Z,50.877178
2022-08-25T02:56:37.978Z,50.877193
2022-08-25T02:57:37.933Z,50.877190
2022-08-25T02:58:37.947Z,50.877197
2022-08-25T02:59:37.916Z,50.877167
2022-08-25T03:00:37.917Z,50.877178
2022-08-25T03:01:37.969Z,50.877178
2022-08-25T03:02:37.888Z,50.877159
2022-08-25T03:03:39.488Z,50.877136
2022-08-25T03:04:38.945Z,50.877174
2022-08-25T03:05:37.856Z,50.877186
2022-08-25T03:06:37.856Z,50.877190
2022-08-25T03:07:37.851Z,50.877209
2022-08-25T03:08:37.839Z,50.877182
2022-08-25T03:09:38.285Z,50.877178
2022-08-25T03:10:37.814Z,50.877151
2022-08-25T03:11:37.806Z,50.877171
2022-08-25T03:12:37.821Z,50.877174
2022-08-25T03:13:37.782Z,50.877193
2022-08-25T03:14:37.803Z,50.877159
2022-08-25T03:15:37.765Z,50.877182
2022-08-25T03:16:37.799Z,50.877174
2022-08-25T03:17:37.741Z,50.877171
2022-08-25T03:18:37.748Z,50.877148
2022-08-25T03:19:37.745Z,50.877155
2022-08-25T03:20:37.742Z,50.877151
2022-08-25T03:21:37.702Z,50.877132
2022-08-25T03:22:37.701Z,50.877155
2022-08-25T03:23:37.685Z,50.877167
2022-08-25T03:24:38.710Z,50.877148
2022-08-25T03:25:37.670Z,50.877213
2022-08-25T03:26:37.686Z,50.877197
2022-08-25T03:27:37.641Z,50.877209
2022-08-25T03:28:37.645Z,50.877178
2022-08-25T03:29:37.627Z,50.877178
2022-08-25T03:30:37.607Z,50.877159
2022-08-25T03:31:37.683Z,50.877167
2022-08-25T03:32:37.596Z,50.877163
2022-08-25T03:33:37.585Z,50.877167
2022-08-25T03:34:37.580Z,50.877159
2022-08-25T03:35:37.575Z,50.877155
2022-08-25T03:36:37.573Z,50.877178
2022-08-25T03:37:37.574Z,50.877186
2022-08-25T03:38:37.550Z,50.877163
2022-08-25T03:39:37.519Z,50.877148
2022-08-25T03:40:37.520Z,50.877178
2022-08-25T03:41:37.508Z,50.877186
2022-08-25T03:42:41.318Z,50.877174
2022-08-25T03:43:37.494Z,50.877171
2022-08-25T03:44:37.485Z,50.877159
2022-08-25T03:45:37.515Z,50.877178
2022-08-25T03:46:37.463Z,50.877190
2022-08-25T03:47:37.476Z,50.877190
2022-08-25T03:48:37.439Z,50.877178
2022-08-25T03:49:37.448Z,50.877174
2022-08-25T03:50:37.419Z,50.877190
2022-08-25T03:51:37.397Z,50.877193
2022-08-25T03:52:41.811Z,50.877178
2022-08-25T03:53:38.401Z,50.877193
2022-08-25T03:54:37.397Z,50.877167
2022-08-25T03:55:37.375Z,50.877193
2022-08-25T03:56:37.351Z,50.877186
2022-08-25T03:57:37.347Z,50.877178
2022-08-25T03:58:37.350Z,50.877186
2022-08-25T03:59:37.333Z,50.877201
2022-08-25T04:00:37.319Z,50.877201
2022-08-25T04:01:37.379Z,50.877216
2022-08-25T04:02:37.346Z,50.877201
2022-08-25T04:03:37.310Z,50.877178
2022-08-25T04:04:37.282Z,50.877144
2022-08-25T04:05:37.279Z,50.877182
2022-08-25T04:06:37.289Z,50.877155
2022-08-25T04:07:37.246Z,50.877178
2022-08-25T04:08:37.235Z,50.877186
2022-08-25T04:09:37.217Z,50.877186
2022-08-25T04:10:37.223Z,50.877171
2022-08-25T04:11:37.237Z,50.877178
2022-08-25T04:12:37.223Z,50.877178
2022-08-25T04:13:37.197Z,50.877182
2022-08-25T04:14:37.176Z,50.877182
2022-08-25T04:15:37.183Z,50.877171
2022-08-25T04:16:37.206Z,50.877178
2022-08-25T04:17:37.144Z,50.877186
2022-08-25T04:18:37.141Z,50.877190
2022-08-25T04:19:37.134Z,50.877201
2022-08-25T04:20:37.140Z,50.877193
2022-08-25T04:21:37.107Z,50.877197
2022-08-25T04:22:37.101Z,50.877190
2022-08-25T04:23:37.124Z,50.877209
2022-08-25T04:24:37.077Z,50.877171
2022-08-25T04:25:37.074Z,50.877167
2022-08-25T04:26:37.055Z,50.877178
2022-08-25T04:27:37.051Z,50.877178
2022-08-25T04:28:37.055Z,50.877182
2022-08-25T04:29:37.022Z,50.877174
2022-08-25T04:30:37.014Z,50.877182
2022-08-25T04:31:37.071Z,50.877178
2022-08-25T04:32:37.012Z,50.877159
2022-08-25T04:33:36.986Z,50.877182
2022-08-25T04:34:37.008Z,50.877171
2022-08-25T04:35:36.967Z,50.877193
2022-08-25T04:36:36.992Z,50.877209
2022-08-25T04:37:36.947Z,50.877216
2022-08-25T04:38:36.943Z,50.877205
2022-08-25T04:39:36.929Z,50.877201
2022-08-25T04:40:36.950Z,50.877304
2022-08-25T04:41:36.937Z,50.877277
2022-08-25T04:42:36.905Z,50.877190
2022-08-25T04:43:36.889Z,50.877186
2022-08-25T04:44:36.922Z,50.877293
2022-08-25T04:45:36.910Z,50.877296
2022-08-25T04:46:36.859Z,50.877155
2022-08-25T04:47:36.857Z,50.877182
2022-08-25T04:48:36.839Z,50.877197
2022-08-25T04:49:36.837Z,50.877186
2022-08-25T04:50:36.872Z,50.877293
2022-08-25T04:51:36.813Z,50.877262
2022-08-25T04:52:36.804Z,50.877270
2022-08-25T04:53:36.799Z,50.877277
2022-08-25T04:54:37.141Z,50.877258
2022-08-25T04:55:36.771Z,50.877220
2022-08-25T04:56:36.786Z,50.877167
2022-08-25T04:57:36.753Z,50.877163
2022-08-25T04:58:36.776Z,50.877155
2022-08-25T04:59:36.734Z,50.877140
2022-08-25T05:00:36.758Z,50.877167
2022-08-25T05:01:36.744Z,50.877254
2022-08-25T05:02:36.712Z,50.877262
2022-08-25T05:03:36.693Z,50.877251
2022-08-25T05:04:36.728Z,50.877270
2022-08-25T05:05:36.687Z,50.877239
2022-08-25T05:06:36.684Z,50.877232
2022-08-25T05:07:36.683Z,50.877232
2022-08-25T05:08:36.641Z,50.877266
2022-08-25T05:09:36.632Z,50.877232
2022-08-25T05:10:36.664Z,50.877190
2022-08-25T05:11:36.628Z,50.877190
2022-08-25T05:12:36.669Z,50.877209
2022-08-25T05:13:36.648Z,50.877197
2022-08-25T05:14:36.615Z,50.877201
2022-08-25T05:15:36.615Z,50.877209
2022-08-25T05:16:36.626Z,50.877205
2022-08-25T05:17:36.586Z,50.877197
2022-08-25T05:18:36.594Z,50.877182
2022-08-25T05:19:36.611Z,50.877178
2022-08-25T05:20:36.564Z,50.877190
2022-08-25T05:21:36.595Z,50.877197
2022-08-25T05:22:36.560Z,50.877171
2022-08-25T05:23:36.533Z,50.877178
2022-08-25T05:24:36.526Z,50.877182
2022-08-25T05:25:36.539Z,50.877190
2022-08-25T05:26:36.515Z,50.877148
2022-08-25T05:27:36.495Z,50.877182
2022-08-25T05:28:36.485Z,50.877132
2022-08-25T05:29:36.453Z,50.877174
2022-08-25T05:30:36.470Z,50.877178
2022-08-25T05:31:41.721Z,50.877174
2022-08-25T05:32:38.436Z,50.877186
2022-08-25T05:33:36.410Z,50.877190
2022-08-25T05:34:36.413Z,50.877163
2022-08-25T05:35:36.409Z,50.877090
2022-08-25T05:36:36.404Z,50.877117
2022-08-25T05:37:36.440Z,50.877056
2022-08-25T05:38:36.369Z,50.877106
2022-08-25T05:39:36.416Z,50.877098
2022-08-25T05:40:36.372Z,50.877113
2022-08-25T05:41:36.355Z,50.877140
2022-08-25T05:42:36.364Z,50.877167
2022-08-25T05:43:36.336Z,50.877148
2022-08-25T05:44:36.340Z,50.877136
2022-08-25T05:45:36.358Z,50.877132
2022-08-25T05:46:36.346Z,50.877056
2022-08-25T05:47:36.307Z,50.877098
2022-08-25T05:48:36.305Z,50.877167
2022-08-25T05:49:36.336Z,50.877167
2022-08-25T05:50:36.294Z,50.877182
2022-08-25T05:51:36.266Z,50.877163
2022-08-25T05:52:36.249Z,50.877159
2022-08-25T05:53:36.266Z,50.877102
2022-08-25T05:54:36.224Z,50.877075
2022-08-25T05:55:36.303Z,50.877094
2022-08-25T05:56:36.249Z,50.877106
2022-08-25T05:57:38.054Z,50.877125
2022-08-25T05:58:36.172Z,50.877125
2022-08-25T05:59:36.172Z,50.877148
2022-08-25T06:00:36.178Z,50.877125
2022-08-25T06:01:36.137Z,50.877148
2022-08-25T06:02:36.147Z,50.877144
2022-08-25T06:03:36.147Z,50.877148
2022-08-25T06:04:39.556Z,50.877159
2022-08-25T06:05:38.093Z,50.877148
2022-08-25T06:06:36.113Z,50.877148
2022-08-25T06:07:36.461Z,50.877144
2022-08-25T06:08:37.064Z,50.877144
2022-08-25T06:09:36.073Z,50.877148
2022-08-25T06:10:37.147Z,50.877136
2022-08-25T06:11:36.045Z,50.877136
2022-08-25T06:12:36.566Z,50.877144
2022-08-25T06:13:36.030Z,50.877098
2022-08-25T06:14:36.050Z,50.877140
2022-08-25T06:15:36.012Z,50.877132
2022-08-25T06:16:36.047Z,50.877148
2022-08-25T06:17:35.989Z,50.877129
2022-08-25T06:18:35.985Z,50.877117
2022-08-25T06:19:37.119Z,50.877132
2022-08-25T06:20:36.963Z,50.877140
2022-08-25T06:21:35.955Z,50.877132
2022-08-25T06:22:35.971Z,50.877136
2022-08-25T06:23:35.944Z,50.877144
2022-08-25T06:24:35.934Z,50.877144
2022-08-25T06:25:35.919Z,50.877144
2022-08-25T06:26:35.936Z,50.877132
2022-08-25T06:27:35.894Z,50.877136
2022-08-25T06:28:35.888Z,50.877140
2022-08-25T06:29:35.874Z,50.877136
2022-08-25T06:30:35.859Z,50.877106
2022-08-25T06:31:35.993Z,50.877129
2022-08-25T06:32:35.895Z,50.877125
2022-08-25T06:33:35.845Z,50.877110
2022-08-25T06:34:35.844Z,50.877110
2022-08-25T06:35:35.852Z,50.877113
2022-08-25T06:36:35.804Z,50.877121
2022-08-25T06:37:35.799Z,50.877129
2022-08-25T06:38:35.823Z,50.877136
2022-08-25T06:39:35.785Z,50.877113
2022-08-25T06:40:35.798Z,50.877125
2022-08-25T06:41:36.997Z,50.877155
2022-08-25T06:42:35.753Z,50.877117
2022-08-25T06:43:35.759Z,50.877110
2022-08-25T06:44:35.768Z,50.877113
2022-08-25T06:45:35.767Z,50.877113
2022-08-25T06:46:37.107Z,50.877113
2022-08-25T06:47:35.718Z,50.877117
2022-08-25T06:48:35.701Z,50.877136
2022-08-25T06:49:36.350Z,50.877148
2022-08-25T06:50:36.695Z,50.877132
2022-08-25T06:51:35.691Z,50.877125
2022-08-25T06:52:35.676Z,50.877090
2022-08-25T06:53:35.654Z,50.877087
2022-08-25T06:54:35.682Z,50.877071
2022-08-25T06:55:35.639Z,50.877117
2022-08-25T06:56:35.635Z,50.877110
2022-08-25T06:57:35.643Z,50.877113
2022-08-25T06:58:35.612Z,50.877102
2022-08-25T06:59:35.648Z,50.877117
2022-08-25T07:00:35.707Z,50.877125
2022-08-25T07:01:35.689Z,50.877121
2022-08-25T07:02:35.690Z,50.877110
2022-08-25T07:03:35.579Z,50.877148
2022-08-25T07:04:35.570Z,50.877079
2022-08-25T07:05:43.603Z,50.877068
2022-08-25T07:06:36.549Z,50.877071
2022-08-25T07:08:07.429Z,50.877068
2022-08-25T07:08:35.517Z,50.877090
2022-08-25T07:09:39.032Z,50.877083
2022-08-25T07:10:36.730Z,50.877052
2022-08-25T07:11:35.518Z,50.877071
2022-08-25T07:12:35.476Z,50.877068
2022-08-25T07:13:35.486Z,50.877075
2022-08-25T07:14:35.448Z,50.877007
2022-08-25T07:15:36.452Z,50.877048
2022-08-25T07:16:35.461Z,50.877048
2022-08-25T07:17:35.451Z,50.877087
2022-08-25T07:18:36.469Z,50.877129
2022-08-25T07:19:35.454Z,50.877060
2022-08-25T07:20:35.411Z,50.877068
2022-08-25T07:21:35.900Z,50.877007
2022-08-25T07:22:36.085Z,50.877033
2022-08-25T07:23:35.384Z,50.877026
2022-08-25T07:24:35.409Z,50.876999
2022-08-25T07:25:35.371Z,50.876999
2022-08-25T07:26:38.214Z,50.876961
2022-08-25T07:27:36.347Z,50.877144
2022-08-25T07:28:35.352Z,50.877155
2022-08-25T07:29:35.341Z,50.877171
2022-08-25T07:30:36.353Z,50.877159
2022-08-25T07:31:35.386Z,50.877167
2022-08-25T07:32:35.317Z,50.877167
2022-08-25T07:33:35.306Z,50.877136
2022-08-25T07:34:35.283Z,50.877136
2022-08-25T07:35:37.395Z,50.877110
2022-08-25T07:36:35.277Z,50.877113
2022-08-25T07:37:50.204Z,50.877121
2022-08-25T07:38:37.496Z,50.877136
2022-08-25T07:39:35.241Z,50.877144
2022-08-25T07:40:36.197Z,50.877151
2022-08-25T07:41:35.228Z,50.877155
2022-08-25T07:42:35.243Z,50.877159
2022-08-25T07:43:35.219Z,50.877171
2022-08-25T07:44:35.204Z,50.877178
2022-08-25T07:45:35.223Z,50.877193
2022-08-25T07:46:35.230Z,50.877155
2022-08-25T07:47:35.181Z,50.877216
2022-08-25T07:48:35.164Z,50.877102
2022-08-25T07:49:36.196Z,50.877110
2022-08-25T07:50:35.168Z,50.877132
2022-08-25T07:51:35.136Z,50.877266
2022-08-25T07:52:35.123Z,50.877155
2022-08-25T07:53:35.120Z,50.877159
2022-08-25T07:54:35.596Z,50.877102
2022-08-25T07:55:35.153Z,50.877159
2022-08-25T07:56:35.086Z,50.877129
2022-08-25T07:57:35.071Z,50.877121
2022-08-25T07:58:35.069Z,50.877113
2022-08-25T07:59:39.283Z,50.877155
2022-08-25T08:00:35.989Z,50.877197
2022-08-25T08:01:35.122Z,50.877125
2022-08-25T08:02:35.062Z,50.877163
2022-08-25T08:03:50.047Z,50.877144
2022-08-25T08:04:36.025Z,50.877155
2022-08-25T08:05:35.658Z,50.877155
2022-08-25T08:06:34.999Z,50.877163
2022-08-25T08:07:42.147Z,50.877117
2022-08-25T08:08:35.970Z,50.877121
2022-08-25T08:09:34.964Z,50.877132
2022-08-25T08:10:54.203Z,50.877151
2022-08-25T08:11:36.947Z,50.877171
2022-08-25T08:12:34.969Z,50.877140
2022-08-25T08:13:39.293Z,50.877151
2022-08-25T08:14:36.925Z,50.877159
2022-08-25T08:15:35.923Z,50.877174
2022-08-25T08:16:34.980Z,50.877148
2022-08-25T08:17:34.924Z,50.877117
2022-08-25T08:18:34.911Z,50.877155
2022-08-25T08:19:34.884Z,50.877140
2022-08-25T08:20:42.542Z,50.877182
2022-08-25T08:21:34.871Z,50.877182
2022-08-25T08:22:34.871Z,50.877155
2022-08-25T08:23:34.849Z,50.877159
2022-08-25T08:24:44.615Z,50.877186
2022-08-25T08:25:35.840Z,50.877209
2022-08-25T08:26:55.413Z,50.877193
2022-08-25T08:27:36.815Z,50.877201
2022-08-25T08:28:34.797Z,50.877193
2022-08-25T08:29:34.820Z,50.877182
2022-08-25T08:30:35.785Z,50.877224
2022-08-25T08:31:34.836Z,50.877216
2022-08-25T08:33:05.964Z,50.877205
2022-08-25T08:33:40.849Z,50.877193
2022-08-25T08:34:34.761Z,50.877174
2022-08-25T08:35:34.744Z,50.877182
2022-08-25T08:36:34.742Z,50.877190
2022-08-25T08:37:34.768Z,50.877193
2022-08-25T08:38:34.714Z,50.877182
2022-08-25T08:39:34.724Z,50.877213
2022-08-25T08:40:34.757Z,50.877235
2022-08-25T08:41:54.214Z,50.877197
2022-08-25T08:42:34.693Z,50.877171
2022-08-25T08:43:34.707Z,50.877174
2022-08-25T08:44:34.684Z,50.877186
2022-08-25T08:45:35.680Z,50.877193
2022-08-25T08:46:34.719Z,50.877182
2022-08-25T08:47:34.639Z,50.877235
2022-08-25T08:48:34.635Z,50.877174
2022-08-25T08:49:34.625Z,50.877209
2022-08-25T08:50:34.668Z,50.877209
2022-08-25T08:51:34.605Z,50.877247
2022-08-25T08:52:34.608Z,50.877235
2022-08-25T08:53:35.587Z,50.877247
2022-08-25T08:54:34.593Z,50.877235
2022-08-25T08:55:34.577Z,50.877243
2022-08-25T08:56:34.587Z,50.877235
2022-08-25T08:57:34.561Z,50.877228
2022-08-25T08:58:34.564Z,50.877205
2022-08-25T08:59:34.564Z,50.877182
2022-08-25T09:00:34.547Z,50.877201
2022-08-25T09:01:34.653Z,50.877205
2022-08-25T09:02:39.424Z,50.877193
2022-08-25T09:03:36.574Z,50.877209
2022-08-25T09:04:34.494Z,50.877174
2022-08-25T09:05:38.863Z,50.877182
2022-08-25T09:06:36.510Z,50.877182
2022-08-25T09:07:34.462Z,50.877186
2022-08-25T09:08:34.459Z,50.877201
2022-08-25T09:09:35.796Z,50.877205
2022-08-25T09:10:34.438Z,50.877209
2022-08-25T09:11:34.463Z,50.877205
2022-08-25T09:12:34.412Z,50.877205
2022-08-25T09:13:34.416Z,50.877197
2022-08-25T09:14:34.403Z,50.877209
2022-08-25T09:15:41.258Z,50.877216
2022-08-25T09:16:34.782Z,50.877190
2022-08-25T09:17:34.393Z,50.877220
2022-08-25T09:18:37.779Z,50.877182
2022-08-25T09:19:34.359Z,50.877205
2022-08-25T09:20:34.351Z,50.877205
2022-08-25T09:21:34.374Z,50.877205
2022-08-25T09:22:36.375Z,50.877178
2022-08-25T09:23:34.327Z,50.877205
2022-08-25T09:24:34.322Z,50.877159
2022-08-25T09:25:52.746Z,50.877178
2022-08-25T09:26:36.320Z,50.877182
2022-08-25T09:27:34.314Z,50.877205
2022-08-25T09:28:34.309Z,50.877193
2022-08-25T09:29:34.278Z,50.877213
2022-08-25T09:30:34.282Z,50.877216
2022-08-25T09:31:34.303Z,50.877171
2022-08-25T09:32:34.270Z,50.877121
2022-08-25T09:33:35.445Z,50.877163
2022-08-25T09:34:34.241Z,50.877182
2022-08-25T09:35:34.224Z,50.877213
2022-08-25T09:36:37.568Z,50.877193
2022-08-25T09:37:35.229Z,50.877178
2022-08-25T09:38:34.207Z,50.877209
2022-08-25T09:39:34.190Z,50.877228
2022-08-25T09:40:34.279Z,50.877220
2022-08-25T09:41:34.190Z,50.877213
2022-08-25T09:42:34.203Z,50.877247
2022-08-25T09:43:34.168Z,50.877163
2022-08-25T09:44:34.141Z,50.877213
2022-08-25T09:45:34.163Z,50.877201
2022-08-25T09:46:34.206Z,50.877102
2022-08-25T09:47:34.112Z,50.877174
2022-08-25T09:48:37.764Z,50.877201
2022-08-25T09:49:36.100Z,50.877209
2022-08-25T09:50:34.769Z,50.877171
2022-08-25T09:51:42.580Z,50.877213
2022-08-25T09:52:34.078Z,50.877209
2022-08-25T09:53:34.140Z,50.877216
2022-08-25T09:54:44.372Z,50.877209
2022-08-25T09:55:35.391Z,50.877182
2022-08-25T09:56:34.043Z,50.877186
2022-08-25T09:57:34.078Z,50.877155
2022-08-25T09:58:34.039Z,50.877205
2022-08-25T09:59:34.901Z,50.877190
2022-08-25T10:00:34.023Z,50.877129
2022-08-25T10:01:34.864Z,50.877167
2022-08-25T10:02:33.983Z,50.877201
2022-08-25T10:03:36.555Z,50.877167
2022-08-25T10:04:33.967Z,50.877117
2022-08-25T10:05:34.009Z,50.877140
2022-08-25T10:06:33.955Z,50.877132
2022-08-25T10:07:33.941Z,50.877201
2022-08-25T10:08:33.951Z,50.877163
2022-08-25T10:09:33.919Z,50.877163
2022-08-25T10:10:34.515Z,50.877163
2022-08-25T10:11:33.922Z,50.877163
2022-08-25T10:12:33.903Z,50.877163
2022-08-25T10:13:33.889Z,50.877235
2022-08-25T10:14:33.881Z,50.877235
2022-08-25T10:15:33.949Z,50.877235
2022-08-25T10:16:35.801Z,50.877235
2022-08-25T10:17:34.858Z,50.877235
2022-08-25T10:18:33.843Z,50.877235
2022-08-25T10:19:33.824Z,50.877235
2022-08-25T10:20:35.304Z,50.877235
2022-08-25T10:21:33.817Z,50.877235
2022-08-25T10:22:33.810Z,50.877235
2022-08-25T10:23:33.796Z,50.877235
2022-08-25T10:24:33.789Z,50.877235
2022-08-25T10:25:33.767Z,50.877235
2022-08-25T10:26:35.317Z,50.877235
2022-08-25T10:27:34.781Z,50.877235
2022-08-25T10:28:33.746Z,50.877235
2022-08-25T10:29:33.750Z,50.877235
2022-08-25T10:30:33.753Z,50.877235
2022-08-25T10:31:34.679Z,50.877235
2022-08-25T10:32:33.727Z,50.877235
2022-08-25T10:33:33.700Z,50.877193
2022-08-25T10:34:35.827Z,50.877197
2022-08-25T10:35:33.777Z,50.877159
2022-08-25T10:36:33.707Z,50.877148
2022-08-25T10:37:33.676Z,50.877151
2022-08-25T10:38:36.165Z,50.877186
2022-08-25T10:39:36.627Z,50.877178
2022-08-25T10:40:33.717Z,50.877201
2022-08-25T10:41:33.657Z,50.877182
2022-08-25T10:42:33.639Z,50.877201
2022-08-25T10:43:33.642Z,50.877186
2022-08-25T10:44:33.599Z,50.877174
2022-08-25T10:45:34.610Z,50.877159
2022-08-25T10:46:33.696Z,50.877193
2022-08-25T10:47:33.614Z,50.877186
2022-08-25T10:48:33.584Z,50.877201
2022-08-25T10:49:33.568Z,50.877205
2022-08-25T10:50:33.563Z,50.877205
2022-08-25T10:51:33.537Z,50.877186
2022-08-25T10:52:33.575Z,50.877190
2022-08-25T10:53:33.528Z,50.877178
2022-08-25T10:54:33.520Z,50.877171
2022-08-25T10:55:33.510Z,50.877174
2022-08-25T10:56:34.497Z,50.877182
2022-08-25T10:57:33.490Z,50.877155
2022-08-25T10:58:34.534Z,50.877106
2022-08-25T10:59:33.476Z,50.877159
2022-08-25T11:00:33.458Z,50.877178
2022-08-25T11:01:40.247Z,50.877205
2022-08-25T11:02:34.487Z,50.877190
2022-08-25T11:03:35.343Z,50.877174
2022-08-25T11:04:33.424Z,50.877209
2022-08-25T11:05:33.471Z,50.877182
2022-08-25T11:06:33.409Z,50.877155
2022-08-25T11:07:33.394Z,50.877190
2022-08-25T11:08:33.381Z,50.877174
2022-08-25T11:09:33.371Z,50.877174
2022-08-25T11:10:33.401Z,50.877193
2022-08-25T11:11:35.007Z,50.877190
2022-08-25T11:12:33.355Z,50.877190
2022-08-25T11:13:33.345Z,50.877205
2022-08-25T11:14:34.643Z,50.877201
2022-08-25T11:15:34.342Z,50.877174
2022-08-25T11:16:33.346Z,50.877186
2022-08-25T11:17:33.317Z,50.877186
2022-08-25T11:18:33.333Z,50.877209
2022-08-25T11:19:33.770Z,50.877205
2022-08-25T11:20:33.297Z,50.877159
2022-08-25T11:21:34.869Z,50.877174
2022-08-25T11:22:33.266Z,50.877171
2022-08-25T11:23:33.252Z,50.877155
2022-08-25T11:24:33.252Z,50.877140